[2025-03-08 00:00:00, 2025-03-08 23:59:59] previous next
| time | temperature | air pressure | humidity | solar radiation | wind speed |
|---|---|---|---|---|---|
| 2025-03-08 07:02:48 | 4.0 | 1004.6 | 99.0 | 0.0 | 0.0 |
| 2025-03-08 07:23:15 | 5.7 | 1004.6 | 95.0 | 29.2 | 0.0 |
| 2025-03-08 07:43:16 | 7.4 | 1004.6 | 84.0 | 34.9 | 0.0 |
| 2025-03-08 08:03:16 | 8.9 | 1004.6 | 84.0 | 40.3 | 0.0 |
| 2025-03-08 08:23:14 | 9.4 | 1004.6 | 77.0 | 44.0 | 0.4 |
| 2025-03-08 08:43:15 | 10.6 | 1004.6 | 73.0 | 48.1 | 0.8 |
| 2025-03-08 09:03:14 | 11.1 | 1004.6 | 72.0 | 57.0 | 0.0 |
| 2025-03-08 09:23:15 | 13.4 | 1004.6 | 65.0 | 70.3 | 0.0 |
| 2025-03-08 09:43:14 | 14.6 | 1004.6 | 62.0 | 56.2 | 0.0 |
| 2025-03-08 10:03:15 | 17.8 | 1004.3 | 51.0 | 111.5 | 1.5 |
| 2025-03-08 10:23:14 | 19.5 | 1004.3 | 46.0 | 63.0 | 0.1 |
| 2025-03-08 10:43:15 | 19.7 | 1003.9 | 47.0 | 172.8 | 0.7 |
| 2025-03-08 11:03:14 | 18.1 | 1003.6 | 51.0 | 169.9 | 0.0 |
| 2025-03-08 11:23:15 | 17.8 | 1003.6 | 52.0 | 73.5 | 1.5 |
| 2025-03-08 11:43:14 | 17.9 | 1003.3 | 53.0 | 277.5 | 1.7 |
| 2025-03-08 12:03:15 | 18.9 | 1002.9 | 48.0 | 274.7 | 1.8 |
| 2025-03-08 12:23:14 | 19.6 | 1002.6 | 48.0 | 301.9 | 0.6 |
| 2025-03-08 12:43:15 | 19.1 | 1002.2 | 44.0 | 317.3 | 0.0 |
| 2025-03-08 13:03:14 | 19.6 | 1001.9 | 41.0 | 301.7 | 1.4 |
| 2025-03-08 13:23:15 | 22.3 | 1001.6 | 37.0 | 308.4 | 2.7 |
| 2025-03-08 13:43:14 | 19.5 | 1001.6 | 41.0 | 284.3 | 0.8 |
| 2025-03-08 14:03:14 | 19.3 | 1001.2 | 42.0 | 266.4 | 3.2 |
| 2025-03-08 14:23:14 | 20.3 | 1000.9 | 39.0 | 267.8 | 0.8 |
| 2025-03-08 14:43:15 | 19.6 | 1000.9 | 43.0 | 252.0 | 0.7 |
| 2025-03-08 15:03:18 | 19.3 | 1000.9 | 42.0 | 239.0 | 2.9 |
| 2025-03-08 15:23:14 | 19.6 | 1000.6 | 36.0 | 175.2 | 2.7 |
| 2025-03-08 15:43:14 | 19.8 | 1000.6 | 35.0 | 135.5 | 1.8 |
| 2025-03-08 16:03:15 | 19.7 | 1000.6 | 35.0 | 149.9 | 1.1 |
CSV export: /station/IWELLEN5/data?period=20250308T000000/20250308T235959&format=csv&tz=GMT